British Emerald — MIBR — position and weather

sailwx.info

Track history (hours):
 
Tides and Currents Weather Stations Pressure Air Temp Water Temp Dewpoint Dewpoint Depression Visibility Wind Speed Wind Dir Waves Ship Positions

British Emerald

Last reported at 2014-Dec-15 08:00 UTC. Time now 2014-Dec-19 16:30 UTC.
Position N 08°06' W 055°12'.

Type: Ship (hazmat cat A). MMSI: 235050369.

Wind from 100 at 14 knots

Barometer 1011.0 mb
Air temperature 27.0 ° C
Visibility: greater than 10.8 NM
Dewpoint 23.4 ° C
Water temperature 28.0 ° C

Date/timePositionNaut miles runAvg speedWind from/ knotsBaromVisibWave heightAir tempDewpointWater temp
2014-Dec-15 08:00N 08°06' W 055°12'47118.9 100 / 141011.010.8 27.023.428.0
2014-Dec-14 07:00N 04°06' W 048°24'69119.2 060 / 161009.710.8 26.923.027.7
2014-Dec-12 19:00S 02°06' W 038°42'42617.7 120 / 171010.110.8 1.027.023.827.3
2014-Dec-11 19:00S 07°36' W 034°12'41616.8 170 / 341012.510.8 1.525.022.327.5
2014-Dec-10 18:17S 13°10' W 038°24'1216.5
2014-Dec-10 17:33S 13°05' W 038°35'9 9.3
2014-Dec-10 16:33S 12°56' W 038°34'1 1.3
2014-Dec-10 15:33S 12°55' W 038°34'7 6.5
2014-Dec-10 14:33S 12°51' W 038°40'2 2.4
2014-Dec-10 13:33S 12°49' W 038°41'0 0.0
2014-Dec-10 12:33S 12°49' W 038°41'0 0.0
2014-Dec-09 19:09S 12°49' W 038°41'0 0.0
2014-Dec-07 15:12S 12°49' W 038°41'0 0.5
2014-Dec-07 14:33S 12°49' W 038°41'2 2.2
2014-Dec-07 13:33S 12°51' W 038°40'8 8.2
2014-Dec-07 12:33S 12°56' W 038°33'6 6.0
2014-Dec-07 11:33S 13°02' W 038°34'7 7.4
2014-Dec-07 10:33S 13°09' W 038°34'8 8.1
2014-Dec-07 09:31S 13°15' W 038°28'4 2.0
2014-Dec-07 07:33S 13°15' W 038°32'  
Track history (hours):
 
Tides and Currents Weather Stations Pressure Air Temp Water Temp Dewpoint Dewpoint Depression Visibility Wind Speed Wind Dir Waves Ship Positions

British Emerald

Last reported at 2014-Dec-15 08:00 UTC. Time now 2014-Dec-19 16:30 UTC.
Position N 08°06' W 055°12'.

Type: Ship (hazmat cat A). MMSI: 235050369.

Wind from 100 at 14 knots

Barometer 1011.0 mb
Air temperature 27.0 ° C
Visibility: greater than 10.8 NM
Dewpoint 23.4 ° C
Water temperature 28.0 ° C

Date/timePositionNaut miles runAvg speedWind from/ knotsBaromVisibWave heightAir tempDewpointWater temp
2014-Dec-15 08:00N 08°06' W 055°12'47118.9 100 / 141011.010.8 27.023.428.0
2014-Dec-14 07:00N 04°06' W 048°24'69119.2 060 / 161009.710.8 26.923.027.7
2014-Dec-12 19:00S 02°06' W 038°42'42617.7 120 / 171010.110.8 1.027.023.827.3
2014-Dec-11 19:00S 07°36' W 034°12'41616.8 170 / 341012.510.8 1.525.022.327.5
2014-Dec-10 18:17S 13°10' W 038°24'1216.5
2014-Dec-10 17:33S 13°05' W 038°35'9 9.3
2014-Dec-10 16:33S 12°56' W 038°34'1 1.3
2014-Dec-10 15:33S 12°55' W 038°34'7 6.5
2014-Dec-10 14:33S 12°51' W 038°40'2 2.4
2014-Dec-10 13:33S 12°49' W 038°41'0 0.0
2014-Dec-10 12:33S 12°49' W 038°41'0 0.0
2014-Dec-09 19:09S 12°49' W 038°41'0 0.0
2014-Dec-07 15:12S 12°49' W 038°41'0 0.5
2014-Dec-07 14:33S 12°49' W 038°41'2 2.2
2014-Dec-07 13:33S 12°51' W 038°40'8 8.2
2014-Dec-07 12:33S 12°56' W 038°33'6 6.0
2014-Dec-07 11:33S 13°02' W 038°34'7 7.4
2014-Dec-07 10:33S 13°09' W 038°34'8 8.1
2014-Dec-07 09:31S 13°15' W 038°28'4 2.0
2014-Dec-07 07:33S 13°15' W 038°32'  

Dump ship's entire track history